EHGR/GLZ METAR and TAF weather

Enter ICAO airport designator
Station Type Date Time Source
EHGR METAR 2020/07/09 08:25 UTC NOAA

EHGR 090825Z AUTO 23007KT 190V280 9000 -RADZ SCT006 BKN008 OVC009 17/16 Q1013 YLO 24008KT 8000 RADZ FEW006 BKN008 OVC012 TEMPO BKN006 BKN008


Station Type Date Time Source
EHGR Decoded METAR 2020/07/09 08:25 UTC NOAA

Gilze-Rijen, Netherlands (EHGR) 51-34N 004-56E 24M
Jul 09, 2020 - 04:25 AM EDT / 2020.07.09 0825 UTC
Wind: from the SW (230 degrees) at 8 MPH (7 KT) (direction variable):0
Visibility: 5 mile(s):0
Sky conditions: overcast
Weather: light rain, drizzle
Temperature: 62 F (17 C)
Dew Point: 60 F (16 C)
Relative Humidity: 93%
Pressure (altimeter): 29.91 in. Hg (1013 hPa)
ob: EHGR 090825Z AUTO 23007KT 190V280 9000 -RADZ SCT006 BKN008 OVC009 17/16 Q1013 YLO 24008KT 8000 RADZ FEW006 BKN008 OVC012 TEMPO BKN006 BKN008
cycle: 8

Station Type Date Time Source
EHGR TAF 2020/07/09 05:06 UTC NOAA

TAF TAF EHGR 090443Z 0905/0917 23007KT 6000 BR -RA SCT005 BKN007 BKN012 PROB30
TEMPO 0905/0910 3500 RADZ RA BKN004
BECMG 0908/0911 24011G22KT 9999 NSW FEW008 SCT012 BKN020
BECMG 0911/0913 FEW010 SCT015 BKN030
BECMG 0914/0916 26008KT FEW012 SCT020 BKN050

Example: see airport list